Time;durP1;ratioP1;P1;durP2;ratioP2;P2;SDS_P1;SDS_P2;PMS_P1;PMS_P2;Temp;Humidity;BMP_temperature;BMP_pressure;BME280_temperature;BME280_humidity;BME280_pressure;Samples;Min_cycle;Max_cycle;Signal;HPM_P1;HPM_P2
2022/09/18 00:00:56;;;;;;;;;;;13.40;99.90;;;;;;5001132;28;20012;-68
2022/09/18 00:03:23;;;;;;;;;;;13.40;99.90;;;;;;5002213;28;19917;-67
2022/09/18 00:05:50;;;;;;;;;;;13.30;99.90;;;;;;4996197;28;19922;-68
2022/09/18 00:08:16;;;;;;;;;;;13.30;99.90;;;;;;5004471;28;19924;-69
2022/09/18 00:10:45;;;;;;;;;;;13.40;99.90;;;;;;5003580;28;19928;-67
2022/09/18 00:13:13;;;;;;;;;;;13.30;99.90;;;;;;5002276;28;19917;-67
2022/09/18 00:15:40;;;;;;;;;;;13.40;99.90;;;;;;5001431;28;19975;-68
2022/09/18 00:18:07;;;;;;;;;;;13.40;99.90;;;;;;5012932;28;19960;-68
2022/09/18 00:20:34;;;;;;;;;;;13.40;99.90;;;;;;4998792;28;19928;-69
2022/09/18 00:23:01;;;;;;;;;;;13.30;99.90;;;;;;5003983;28;19933;-68
2022/09/18 00:25:28;;;;;;;;;;;13.30;99.90;;;;;;5008035;28;20597;-67
2022/09/18 00:27:55;;;;;;;;;;;13.40;99.90;;;;;;5001638;28;19929;-67
2022/09/18 00:30:22;;;;;;;;;;;13.30;99.90;;;;;;5004934;28;19929;-67
2022/09/18 00:32:48;;;;;;;;;;;13.40;99.90;;;;;;5006008;28;19926;-68
2022/09/18 00:35:15;;;;;;;;;;;13.40;99.90;;;;;;5005586;28;19921;-67
2022/09/18 00:37:42;;;;;;;;;;;13.30;99.90;;;;;;5010972;28;19924;-68
2022/09/18 00:40:09;;;;;;;;;;;13.30;99.90;;;;;;5019923;28;19926;-67
2022/09/18 00:42:36;;;;;;;;;;;13.30;99.90;;;;;;5006040;28;20352;-68
2022/09/18 00:45:03;;;;;;;;;;;13.30;99.90;;;;;;5006651;28;20405;-69
2022/09/18 00:47:45;;;;;;;;;;;13.30;99.90;;;;;;5021470;28;20019;-68
2022/09/18 00:50:23;;;;;;;;;;;13.30;99.90;;;;;;5004032;28;19943;-68
2022/09/18 00:52:53;;;;;;;;;;;13.30;99.90;;;;;;5002932;28;19968;-69
2022/09/18 00:55:22;;;;;;;;;;;13.30;99.90;;;;;;5006171;28;19921;-68
2022/09/18 00:57:54;;;;;;;;;;;13.30;99.90;;;;;;5005961;28;20021;-68
2022/09/18 01:00:22;;;;;;;;;;;13.30;99.90;;;;;;5004961;28;19976;-67
2022/09/18 01:02:49;;;;;;;;;;;13.30;99.90;;;;;;5004885;28;19948;-67
2022/09/18 01:05:17;;;;;;;;;;;13.30;99.90;;;;;;5003381;28;19918;-68
2022/09/18 01:07:56;;;;;;;;;;;13.30;99.90;;;;;;5005460;28;19986;-68
2022/09/18 01:10:38;;;;;;;;;;;13.30;99.90;;;;;;5003336;28;19921;-67
2022/09/18 01:13:20;;;;;;;;;;;13.30;99.90;;;;;;5003336;28;19921;-68
2022/09/18 01:15:51;;;;;;;;;;;13.30;99.90;;;;;;5006249;28;20033;-68
2022/09/18 01:18:36;;;;;;;;;;;13.30;99.90;;;;;;5003845;28;19921;-68
2022/09/18 01:21:08;;;;;;;;;;;13.30;99.90;;;;;;4994585;28;20286;-68
2022/09/18 01:23:43;;;;;;;;;;;13.30;99.90;;;;;;5002631;28;19936;-68
2022/09/18 01:26:29;;;;;;;;;;;13.30;99.90;;;;;;5017000;28;19922;-68
2022/09/18 01:29:04;;;;;;;;;;;13.40;99.90;;;;;;4999478;28;19918;-67
2022/09/18 01:31:33;;;;;;;;;;;13.30;99.90;;;;;;5002861;28;20016;-68
2022/09/18 01:34:08;;;;;;;;;;;13.40;99.90;;;;;;4995058;28;20430;-69
2022/09/18 01:36:38;;;;;;;;;;;13.30;99.90;;;;;;5001142;28;19953;-68
2022/09/18 01:39:12;;;;;;;;;;;13.30;99.90;;;;;;5022874;28;19917;-67
2022/09/18 01:41:41;;;;;;;;;;;13.30;99.90;;;;;;5026892;28;20231;-67
2022/09/18 01:44:13;;;;;;;;;;;13.30;99.90;;;;;;5010442;28;19995;-67
2022/09/18 01:46:41;;;;;;;;;;;13.30;99.90;;;;;;5008094;28;19925;-68
2022/09/18 01:49:16;;;;;;;;;;;13.30;99.90;;;;;;5010935;28;20520;-68
2022/09/18 01:51:55;;;;;;;;;;;13.30;99.90;;;;;;4998572;28;19921;-67
2022/09/18 01:54:26;;;;;;;;;;;13.20;99.90;;;;;;5029085;28;19997;-68
2022/09/18 01:56:56;;;;;;;;;;;13.20;99.90;;;;;;5002973;28;20594;-67
2022/09/18 01:59:32;;;;;;;;;;;13.20;99.90;;;;;;5026623;28;19957;-67
2022/09/18 02:02:08;;;;;;;;;;;13.20;99.90;;;;;;5010718;28;19917;-68
2022/09/18 02:04:37;;;;;;;;;;;13.20;99.90;;;;;;5009543;28;19922;-68
2022/09/18 02:07:27;;;;;;;;;;;13.10;99.90;;;;;;5010648;28;20279;-68
2022/09/18 02:09:55;;;;;;;;;;;13.20;99.90;;;;;;5009931;28;19932;-68
2022/09/18 02:12:23;;;;;;;;;;;13.20;99.90;;;;;;5026832;28;19922;-67
2022/09/18 02:14:56;;;;;;;;;;;13.20;99.90;;;;;;5024602;28;20664;-67
2022/09/18 02:17:55;;;;;;;;;;;13.20;99.90;;;;;;5003688;28;19956;-68
2022/09/18 02:20:33;;;;;;;;;;;13.30;99.90;;;;;;5025205;28;20348;-67
2022/09/18 02:23:05;;;;;;;;;;;13.20;99.90;;;;;;5016535;28;19944;-70
2022/09/18 02:25:36;;;;;;;;;;;13.20;99.90;;;;;;5019468;28;19929;-68
2022/09/18 02:28:04;;;;;;;;;;;13.20;99.90;;;;;;5026688;28;20267;-68
2022/09/18 02:30:31;;;;;;;;;;;13.20;99.90;;;;;;5009395;28;20012;-68
2022/09/18 02:32:58;;;;;;;;;;;13.10;99.90;;;;;;5025617;28;20030;-67
2022/09/18 02:35:30;;;;;;;;;;;13.10;99.90;;;;;;5009843;28;20286;-67
2022/09/18 02:38:17;;;;;;;;;;;13.10;99.90;;;;;;5006591;28;19922;-68
2022/09/18 02:40:59;;;;;;;;;;;13.10;99.90;;;;;;5006716;28;19921;-68
2022/09/18 02:43:34;;;;;;;;;;;13.00;99.90;;;;;;5010205;28;19921;-67
2022/09/18 02:46:01;;;;;;;;;;;13.00;99.90;;;;;;5022849;28;19995;-68
2022/09/18 02:48:28;;;;;;;;;;;13.00;99.90;;;;;;5006228;28;20643;-68
2022/09/18 02:51:01;;;;;;;;;;;12.90;99.90;;;;;;4993588;28;19921;-70
2022/09/18 02:53:48;;;;;;;;;;;12.90;99.90;;;;;;5018924;28;19968;-67
2022/09/18 02:56:17;;;;;;;;;;;12.80;99.90;;;;;;4999134;28;19934;-68
2022/09/18 02:58:51;;;;;;;;;;;12.60;99.90;;;;;;4998887;28;20016;-68
2022/09/18 03:01:19;;;;;;;;;;;12.50;99.90;;;;;;5006708;28;20011;-67
2022/09/18 03:03:46;;;;;;;;;;;12.40;99.90;;;;;;5020280;28;19917;-68
2022/09/18 03:06:16;;;;;;;;;;;12.30;99.90;;;;;;5005966;28;20409;-66
2022/09/18 03:08:43;;;;;;;;;;;12.30;99.90;;;;;;4999226;28;20220;-67
2022/09/18 03:11:10;;;;;;;;;;;12.20;99.90;;;;;;5006344;28;19921;-68
2022/09/18 03:13:37;;;;;;;;;;;12.20;99.90;;;;;;4999255;28;19952;-67
2022/09/18 03:16:04;;;;;;;;;;;12.10;99.90;;;;;;5004758;28;20316;-69
2022/09/18 03:18:31;;;;;;;;;;;12.00;99.90;;;;;;5019013;28;19921;-67
2022/09/18 03:20:58;;;;;;;;;;;11.90;99.90;;;;;;5018148;28;19921;-69
2022/09/18 03:23:25;;;;;;;;;;;11.80;99.90;;;;;;5005861;28;19955;-68
2022/09/18 03:26:01;;;;;;;;;;;11.80;99.90;;;;;;5005054;28;20359;-68
2022/09/18 03:28:31;;;;;;;;;;;11.60;99.90;;;;;;5006187;28;19979;-67
2022/09/18 03:30:58;;;;;;;;;;;11.50;99.90;;;;;;5002538;28;19979;-67
2022/09/18 03:33:26;;;;;;;;;;;11.40;99.90;;;;;;5016714;28;20245;-69
2022/09/18 03:35:53;;;;;;;;;;;11.40;99.90;;;;;;5019109;28;20004;-67
2022/09/18 03:38:20;;;;;;;;;;;11.30;99.90;;;;;;5005106;28;19921;-67
2022/09/18 03:40:48;;;;;;;;;;;11.20;99.90;;;;;;5018573;28;19943;-68
2022/09/18 03:43:15;;;;;;;;;;;11.20;99.90;;;;;;5004769;28;20013;-67
2022/09/18 03:45:42;;;;;;;;;;;11.10;99.90;;;;;;5005308;28;19918;-68
2022/09/18 03:48:09;;;;;;;;;;;11.10;99.90;;;;;;5011841;28;19928;-70
2022/09/18 03:50:38;;;;;;;;;;;11.00;99.90;;;;;;5003440;28;19992;-67
2022/09/18 03:53:07;;;;;;;;;;;11.00;99.90;;;;;;5006538;28;19975;-67
2022/09/18 03:55:45;;;;;;;;;;;10.90;99.90;;;;;;5002029;28;20009;-68
2022/09/18 03:58:31;;;;;;;;;;;10.90;99.90;;;;;;5002080;28;20060;-69
2022/09/18 04:01:16;;;;;;;;;;;10.80;99.90;;;;;;5003655;28;19981;-67
2022/09/18 04:04:09;;;;;;;;;;;10.80;99.90;;;;;;5000710;28;19925;-68
2022/09/18 04:07:07;;;;;;;;;;;10.80;99.90;;;;;;4997005;28;19921;-70
2022/09/18 04:09:43;;;;;;;;;;;10.70;99.90;;;;;;5006030;28;20370;-67
2022/09/18 04:12:10;;;;;;;;;;;10.60;99.90;;;;;;5007370;28;19963;-67
2022/09/18 04:14:38;;;;;;;;;;;10.60;99.90;;;;;;5019171;28;19929;-67
2022/09/18 04:17:05;;;;;;;;;;;10.50;99.90;;;;;;5005494;28;20367;-67
2022/09/18 04:19:31;;;;;;;;;;;10.50;99.90;;;;;;5005166;28;19979;-68
2022/09/18 04:21:58;;;;;;;;;;;10.40;99.90;;;;;;5005263;28;19926;-67
2022/09/18 04:24:26;;;;;;;;;;;10.40;99.90;;;;;;5022201;28;19939;-67
2022/09/18 04:26:53;;;;;;;;;;;10.30;99.90;;;;;;5000086;28;19922;-67
2022/09/18 04:29:22;;;;;;;;;;;10.30;99.90;;;;;;5017258;28;19929;-67
2022/09/18 04:31:49;;;;;;;;;;;10.20;99.90;;;;;;5017708;28;19980;-69
2022/09/18 04:34:19;;;;;;;;;;;10.10;99.90;;;;;;5005733;28;19926;-68
2022/09/18 04:36:46;;;;;;;;;;;10.10;99.90;;;;;;5001932;28;20032;-67
2022/09/18 04:39:13;;;;;;;;;;;10.00;99.90;;;;;;5021080;28;19943;-67
2022/09/18 04:41:41;;;;;;;;;;;10.00;99.90;;;;;;5020633;28;19922;-67
2022/09/18 04:44:08;;;;;;;;;;;10.00;99.90;;;;;;5005029;28;19921;-67
2022/09/18 04:46:34;;;;;;;;;;;10.00;99.90;;;;;;5025412;28;19940;-68
2022/09/18 04:49:01;;;;;;;;;;;9.90;99.90;;;;;;5004815;28;20024;-72
2022/09/18 04:51:29;;;;;;;;;;;10.00;99.90;;;;;;5004087;28;19925;-68
2022/09/18 04:53:55;;;;;;;;;;;10.00;99.90;;;;;;5005602;28;19922;-68
2022/09/18 04:56:23;;;;;;;;;;;10.00;99.90;;;;;;5004972;28;19917;-70
2022/09/18 04:58:51;;;;;;;;;;;10.00;99.90;;;;;;5019348;28;20255;-68
2022/09/18 05:01:18;;;;;;;;;;;10.10;99.90;;;;;;5004718;28;19929;-67
2022/09/18 05:03:45;;;;;;;;;;;10.10;99.90;;;;;;5020880;28;20008;-67
2022/09/18 05:06:23;;;;;;;;;;;10.10;99.90;;;;;;5003346;28;19923;-68
2022/09/18 05:08:50;;;;;;;;;;;10.20;99.90;;;;;;5003409;28;19921;-68
2022/09/18 05:11:18;;;;;;;;;;;10.20;99.90;;;;;;5001518;28;19917;-67
2022/09/18 05:13:48;;;;;;;;;;;10.30;99.90;;;;;;5006192;28;19940;-68
2022/09/18 05:16:15;;;;;;;;;;;10.40;99.90;;;;;;5005928;28;19977;-67
2022/09/18 05:18:51;;;;;;;;;;;10.50;99.90;;;;;;4996175;28;20115;-68
2022/09/18 05:21:18;;;;;;;;;;;10.60;99.90;;;;;;4994594;28;19925;-67
2022/09/18 05:23:46;;;;;;;;;;;10.70;99.90;;;;;;4987880;28;19929;-69
2022/09/18 05:26:15;;;;;;;;;;;10.80;99.90;;;;;;5010619;28;19929;-67
2022/09/18 05:28:42;;;;;;;;;;;10.80;99.90;;;;;;5007597;28;20292;-68
2022/09/18 05:31:09;;;;;;;;;;;10.90;99.90;;;;;;5002399;28;19921;-69
2022/09/18 05:33:41;;;;;;;;;;;10.90;99.90;;;;;;5008890;28;19925;-67
2022/09/18 05:36:09;;;;;;;;;;;11.00;99.90;;;;;;5000184;28;19926;-67
2022/09/18 05:38:35;;;;;;;;;;;11.00;99.90;;;;;;4990699;28;20315;-69
2022/09/18 05:41:04;;;;;;;;;;;11.00;99.90;;;;;;4999452;28;20013;-68
2022/09/18 05:43:31;;;;;;;;;;;11.00;99.90;;;;;;4988657;28;19977;-68
2022/09/18 05:45:59;;;;;;;;;;;11.00;99.90;;;;;;4997258;28;20005;-68
2022/09/18 05:48:37;;;;;;;;;;;11.00;99.90;;;;;;5004501;28;20273;-68
2022/09/18 05:51:05;;;;;;;;;;;11.00;99.90;;;;;;5000051;28;19929;-67
2022/09/18 05:53:32;;;;;;;;;;;11.00;99.90;;;;;;4997189;28;19968;-69
2022/09/18 05:56:19;;;;;;;;;;;11.00;99.90;;;;;;5005507;28;19933;-69
2022/09/18 05:58:46;;;;;;;;;;;11.00;99.90;;;;;;4989050;28;19998;-68
2022/09/18 06:01:13;;;;;;;;;;;11.00;99.90;;;;;;4990287;28;20005;-68
2022/09/18 06:04:03;;;;;;;;;;;11.10;99.90;;;;;;4992674;28;19926;-69
2022/09/18 06:06:42;;;;;;;;;;;11.10;99.90;;;;;;4999773;28;19921;-70
2022/09/18 06:09:09;;;;;;;;;;;11.10;99.90;;;;;;4988893;28;19929;-68
2022/09/18 06:11:36;;;;;;;;;;;11.10;99.90;;;;;;5007940;28;19997;-70
2022/09/18 06:14:04;;;;;;;;;;;11.20;99.90;;;;;;5005565;28;20591;-68
2022/09/18 06:16:32;;;;;;;;;;;11.30;99.90;;;;;;5007578;28;20418;-68
2022/09/18 06:19:02;;;;;;;;;;;11.40;99.90;;;;;;5001510;28;19923;-67
2022/09/18 06:21:29;;;;;;;;;;;11.50;99.90;;;;;;4989384;28;20000;-68
2022/09/18 06:23:56;;;;;;;;;;;11.70;99.90;;;;;;5002374;28;19918;-67
2022/09/18 06:26:39;;;;;;;;;;;11.90;99.90;;;;;;4991500;28;19933;-67
2022/09/18 06:29:05;;;;;;;;;;;12.10;99.90;;;;;;5006645;28;19968;-68
2022/09/18 06:31:44;;;;;;;;;;;12.30;99.90;;;;;;5011772;28;19975;-68
2022/09/18 06:34:16;;;;;;;;;;;12.40;99.90;;;;;;5010974;28;19953;-70
2022/09/18 06:36:44;;;;;;;;;;;12.60;99.90;;;;;;4998563;28;19922;-67
2022/09/18 06:39:25;;;;;;;;;;;12.80;99.90;;;;;;5002425;28;19922;-67
2022/09/18 06:41:57;;;;;;;;;;;13.00;99.90;;;;;;5003344;28;19949;-68
2022/09/18 06:44:46;;;;;;;;;;;13.10;99.90;;;;;;5004174;28;19980;-68
2022/09/18 06:47:14;;;;;;;;;;;13.20;99.90;;;;;;4993657;28;20322;-67
2022/09/18 06:49:44;;;;;;;;;;;13.20;99.90;;;;;;5002463;28;19928;-67
2022/09/18 06:52:10;;;;;;;;;;;13.20;99.90;;;;;;5004207;28;19921;-70
2022/09/18 06:54:38;;;;;;;;;;;13.30;99.90;;;;;;5000295;28;20036;-68
2022/09/18 06:57:06;;;;;;;;;;;13.40;99.90;;;;;;5014065;28;19929;-68
2022/09/18 06:59:32;;;;;;;;;;;13.40;99.90;;;;;;5010419;28;20016;-70
2022/09/18 07:01:59;;;;;;;;;;;13.40;99.90;;;;;;5010445;28;19922;-67
2022/09/18 07:04:45;;;;;;;;;;;13.40;99.90;;;;;;5008946;28;20031;-68
2022/09/18 07:07:15;;;;;;;;;;;13.50;99.90;;;;;;5008091;28;19924;-68
2022/09/18 07:09:44;;;;;;;;;;;13.50;99.90;;;;;;4992423;28;19917;-67
2022/09/18 07:12:29;;;;;;;;;;;13.50;99.90;;;;;;5010620;28;20394;-68
2022/09/18 07:14:56;;;;;;;;;;;13.50;99.90;;;;;;4994346;28;19923;-67
2022/09/18 07:17:25;;;;;;;;;;;13.60;99.90;;;;;;4993731;28;19973;-70
2022/09/18 07:19:54;;;;;;;;;;;13.60;99.90;;;;;;5004809;28;20036;-68
2022/09/18 07:22:28;;;;;;;;;;;13.60;99.90;;;;;;4994142;28;19925;-67
2022/09/18 07:24:55;;;;;;;;;;;13.70;99.90;;;;;;5000710;28;20608;-68
2022/09/18 07:27:22;;;;;;;;;;;13.80;99.90;;;;;;5007708;28;20033;-67
2022/09/18 07:29:49;;;;;;;;;;;13.80;99.90;;;;;;5022661;28;19925;-67
2022/09/18 07:32:21;;;;;;;;;;;13.80;99.90;;;;;;5005454;28;19922;-67
2022/09/18 07:34:48;;;;;;;;;;;13.90;99.90;;;;;;5003710;28;19925;-72
2022/09/18 07:37:22;;;;;;;;;;;14.00;99.90;;;;;;5020168;28;19967;-67
2022/09/18 07:40:02;;;;;;;;;;;14.10;99.90;;;;;;4990815;28;19922;-67
2022/09/18 07:43:12;;;;;;;;;;;14.20;99.90;;;;;;4987923;28;19921;-68
2022/09/18 07:45:47;;;;;;;;;;;14.30;99.90;;;;;;5015539;28;19924;-69
2022/09/18 07:48:15;;;;;;;;;;;14.40;99.90;;;;;;4993338;28;19925;-68
2022/09/18 07:50:45;;;;;;;;;;;14.40;99.90;;;;;;5009840;28;19977;-67
2022/09/18 07:53:13;;;;;;;;;;;14.60;99.90;;;;;;5001304;28;20636;-67
2022/09/18 07:55:44;;;;;;;;;;;14.60;99.90;;;;;;4993012;28;19929;-70
2022/09/18 07:58:12;;;;;;;;;;;14.60;99.90;;;;;;5001280;28;19922;-68
2022/09/18 08:00:58;;;;;;;;;;;14.60;99.90;;;;;;5007582;28;19929;-65
2022/09/18 08:03:26;;;;;;;;;;;14.60;99.90;;;;;;5004119;28;20000;-67
2022/09/18 08:06:21;;;;;;;;;;;14.40;99.90;;;;;;5004291;28;20019;-67
2022/09/18 08:09:11;;;;;;;;;;;14.50;99.90;;;;;;4961754;28;20005;-69
2022/09/18 08:12:04;;;;;;;;;;;14.50;99.90;;;;;;5019629;28;19936;-70
2022/09/18 08:14:40;;;;;;;;;;;14.60;99.90;;;;;;5013066;28;19917;-67
2022/09/18 08:17:42;;;;;;;;;;;14.70;99.90;;;;;;5006445;28;19917;-68
2022/09/18 08:20:27;;;;;;;;;;;14.70;99.90;;;;;;4992357;28;19928;-70
2022/09/18 08:23:06;;;;;;;;;;;14.70;99.90;;;;;;5004557;28;20538;-67
2022/09/18 08:25:36;;;;;;;;;;;14.80;99.90;;;;;;4994393;28;19918;-67
2022/09/18 08:28:04;;;;;;;;;;;14.90;99.90;;;;;;5001125;28;19965;-69
2022/09/18 08:30:41;;;;;;;;;;;14.90;99.90;;;;;;4991315;28;20375;-67
2022/09/18 08:33:10;;;;;;;;;;;15.00;99.90;;;;;;5007860;28;19925;-68
2022/09/18 08:35:38;;;;;;;;;;;14.90;99.90;;;;;;4992528;28;19917;-67
2022/09/18 08:38:28;;;;;;;;;;;14.90;99.90;;;;;;4995507;28;19918;-68
2022/09/18 08:41:36;;;;;;;;;;;14.90;99.90;;;;;;4973020;28;19917;-67
2022/09/18 08:44:07;;;;;;;;;;;14.90;99.90;;;;;;5016345;28;19929;-68
2022/09/18 08:46:41;;;;;;;;;;;14.80;99.90;;;;;;5012205;28;19948;-67
2022/09/18 08:49:18;;;;;;;;;;;14.80;99.90;;;;;;5004501;28;19929;-68
2022/09/18 08:51:51;;;;;;;;;;;14.80;99.90;;;;;;5004902;28;19929;-68
2022/09/18 08:54:34;;;;;;;;;;;14.80;99.90;;;;;;5004581;28;20646;-67
2022/09/18 08:57:41;;;;;;;;;;;14.80;99.90;;;;;;4940284;28;19945;-68
2022/09/18 09:00:33;;;;;;;;;;;14.80;99.90;;;;;;4944229;28;20443;-71
2022/09/18 09:03:26;;;;;;;;;;;14.80;99.90;;;;;;4986438;28;19933;-67
2022/09/18 09:06:03;;;;;;;;;;;14.80;99.90;;;;;;5004022;28;19921;-69
2022/09/18 09:08:41;;;;;;;;;;;14.80;99.90;;;;;;5016107;28;19921;-67
2022/09/18 09:11:13;;;;;;;;;;;14.80;99.90;;;;;;5018674;28;19921;-67
2022/09/18 09:13:51;;;;;;;;;;;14.90;99.90;;;;;;5015251;28;19921;-67
2022/09/18 09:16:22;;;;;;;;;;;15.00;99.90;;;;;;5019650;28;19921;-67
2022/09/18 09:19:00;;;;;;;;;;;15.00;99.90;;;;;;5003095;28;19940;-68
2022/09/18 09:21:41;;;;;;;;;;;14.80;99.90;;;;;;5017667;28;20328;-68
2022/09/18 09:24:27;;;;;;;;;;;14.70;99.90;;;;;;5001069;28;19928;-68
2022/09/18 09:27:16;;;;;;;;;;;14.70;99.90;;;;;;4996051;28;20097;-68
2022/09/18 09:30:14;;;;;;;;;;;14.70;99.90;;;;;;4992640;28;20489;-68
2022/09/18 09:33:01;;;;;;;;;;;14.80;99.90;;;;;;4997607;28;19921;-69
2022/09/18 09:35:51;;;;;;;;;;;15.00;99.90;;;;;;4992441;28;19918;-70
2022/09/18 09:38:24;;;;;;;;;;;15.00;99.90;;;;;;5006043;28;19925;-70
2022/09/18 09:40:53;;;;;;;;;;;14.90;99.90;;;;;;5003972;28;20012;-67
2022/09/18 09:43:25;;;;;;;;;;;14.80;99.90;;;;;;4992388;28;19932;-67
2022/09/18 09:45:54;;;;;;;;;;;14.90;99.90;;;;;;4997517;28;20531;-69
2022/09/18 09:48:39;;;;;;;;;;;15.00;99.90;;;;;;5013140;28;19930;-68
2022/09/18 09:51:16;;;;;;;;;;;15.00;99.90;;;;;;5007991;28;19928;-68
2022/09/18 09:53:43;;;;;;;;;;;15.00;99.90;;;;;;5011491;28;20264;-70
2022/09/18 09:56:18;;;;;;;;;;;15.00;99.90;;;;;;4998557;28;20360;-67
2022/09/18 09:59:04;;;;;;;;;;;15.10;99.90;;;;;;5002252;28;20278;-66
2022/09/18 10:01:47;;;;;;;;;;;15.20;99.90;;;;;;5020106;28;19917;-68
2022/09/18 10:04:25;;;;;;;;;;;15.10;99.90;;;;;;5003751;28;19925;-68
2022/09/18 10:06:51;;;;;;;;;;;15.20;99.90;;;;;;5010102;28;21682;-67
2022/09/18 10:09:33;;;;;;;;;;;15.10;99.90;;;;;;5001307;28;19967;-70
2022/09/18 10:12:04;;;;;;;;;;;15.20;99.90;;;;;;5005418;28;19921;-69
2022/09/18 10:14:35;;;;;;;;;;;15.20;99.90;;;;;;5011486;28;20407;-68
2022/09/18 10:17:03;;;;;;;;;;;15.30;99.90;;;;;;5006287;28;20008;-68
2022/09/18 10:19:38;;;;;;;;;;;15.30;99.90;;;;;;5004486;28;19942;-68
2022/09/18 10:22:06;;;;;;;;;;;15.30;99.90;;;;;;5022061;28;19990;-68
2022/09/18 10:25:06;;;;;;;;;;;15.30;99.90;;;;;;5002063;28;19987;-68
2022/09/18 10:27:33;;;;;;;;;;;15.30;99.90;;;;;;4962233;28;20358;-69
2022/09/18 10:30:05;;;;;;;;;;;15.40;99.90;;;;;;5004276;28;20008;-72
2022/09/18 10:32:42;;;;;;;;;;;15.30;99.90;;;;;;5009164;28;19964;-68
2022/09/18 10:35:41;;;;;;;;;;;15.30;99.90;;;;;;5000098;28;19925;-70
2022/09/18 10:38:26;;;;;;;;;;;15.30;99.90;;;;;;5012146;28;19928;-70
2022/09/18 10:40:53;;;;;;;;;;;15.40;99.90;;;;;;5014269;28;20259;-68
2022/09/18 10:43:20;;;;;;;;;;;15.40;99.90;;;;;;4998720;28;19967;-68
2022/09/18 10:45:54;;;;;;;;;;;15.50;99.90;;;;;;5002874;28;19925;-69
2022/09/18 10:48:33;;;;;;;;;;;15.60;99.90;;;;;;4994689;28;19968;-67
2022/09/18 10:51:02;;;;;;;;;;;15.50;99.90;;;;;;5019997;28;20356;-68
2022/09/18 10:53:41;;;;;;;;;;;15.50;99.90;;;;;;5020872;28;19971;-68
2022/09/18 10:56:22;;;;;;;;;;;15.50;99.90;;;;;;5016790;28;19997;-67
2022/09/18 10:58:52;;;;;;;;;;;15.60;99.90;;;;;;5012468;28;19956;-68
2022/09/18 11:01:19;;;;;;;;;;;15.60;99.90;;;;;;5014108;28;19917;-67
2022/09/18 11:04:04;;;;;;;;;;;15.50;99.90;;;;;;5007701;28;19922;-69
2022/09/18 11:06:36;;;;;;;;;;;15.50;99.90;;;;;;5008541;28;19922;-69
2022/09/18 11:09:16;;;;;;;;;;;15.50;99.90;;;;;;5006779;28;20451;-68
2022/09/18 11:11:44;;;;;;;;;;;15.40;99.90;;;;;;4994811;28;20000;-68
2022/09/18 11:14:26;;;;;;;;;;;15.50;99.90;;;;;;5008189;28;19917;-68
2022/09/18 11:16:59;;;;;;;;;;;15.50;99.90;;;;;;5013432;28;20275;-68
2022/09/18 11:19:38;;;;;;;;;;;15.50;99.90;;;;;;5010662;28;19993;-70
2022/09/18 11:22:31;;;;;;;;;;;15.50;99.90;;;;;;5013143;28;19918;-68
2022/09/18 11:25:15;;;;;;;;;;;15.50;99.90;;;;;;4992622;28;20013;-69
2022/09/18 11:27:48;;;;;;;;;;;15.50;99.90;;;;;;5012215;28;19994;-69
2022/09/18 11:30:19;;;;;;;;;;;15.60;99.90;;;;;;4995814;28;19917;-69
2022/09/18 11:32:48;;;;;;;;;;;15.50;99.90;;;;;;5003243;28;20702;-70
2022/09/18 11:35:16;;;;;;;;;;;15.50;99.90;;;;;;5019832;28;19995;-70
2022/09/18 11:37:51;;;;;;;;;;;15.50;99.90;;;;;;5006098;28;20338;-68
2022/09/18 11:40:22;;;;;;;;;;;15.50;99.90;;;;;;5003257;28;20260;-68
2022/09/18 11:42:51;;;;;;;;;;;15.50;99.90;;;;;;5004140;28;19921;-68
2022/09/18 11:45:18;;;;;;;;;;;15.50;99.90;;;;;;5005171;28;19921;-68
2022/09/18 11:47:47;;;;;;;;;;;15.60;99.90;;;;;;5028709;28;19948;-68
2022/09/18 11:50:19;;;;;;;;;;;15.50;99.90;;;;;;5005277;28;19960;-68
2022/09/18 11:52:50;;;;;;;;;;;15.50;99.90;;;;;;5003204;28;19918;-68
2022/09/18 11:55:21;;;;;;;;;;;15.60;99.90;;;;;;5019192;28;19987;-67
2022/09/18 11:57:54;;;;;;;;;;;15.70;99.90;;;;;;5020777;28;20380;-68
2022/09/18 12:00:22;;;;;;;;;;;15.70;99.90;;;;;;5003904;28;20024;-68
2022/09/18 12:03:11;;;;;;;;;;;15.60;99.90;;;;;;4999646;28;19921;-68
2022/09/18 12:06:00;;;;;;;;;;;15.70;99.90;;;;;;5014665;28;19952;-68
2022/09/18 12:08:50;;;;;;;;;;;15.70;99.90;;;;;;5018703;28;20308;-69
2022/09/18 12:11:23;;;;;;;;;;;15.70;99.90;;;;;;5014845;28;20267;-68
2022/09/18 12:14:00;;;;;;;;;;;15.70;99.90;;;;;;5017544;28;19936;-69
2022/09/18 12:16:29;;;;;;;;;;;15.60;99.90;;;;;;4995456;28;19947;-68
2022/09/18 12:19:10;;;;;;;;;;;15.60;99.90;;;;;;4988816;28;19922;-68
2022/09/18 12:21:43;;;;;;;;;;;15.60;99.90;;;;;;5010467;28;20084;-68
2022/09/18 12:24:15;;;;;;;;;;;15.60;99.90;;;;;;4995844;28;20012;-69
2022/09/18 12:26:53;;;;;;;;;;;15.60;99.90;;;;;;5007625;28;19917;-68
2022/09/18 12:29:22;;;;;;;;;;;15.70;99.90;;;;;;5009386;28;19922;-68
2022/09/18 12:32:08;;;;;;;;;;;15.70;99.90;;;;;;4999896;28;19921;-67
2022/09/18 12:34:44;;;;;;;;;;;15.70;99.90;;;;;;4998689;28;19922;-68
2022/09/18 12:37:21;;;;;;;;;;;15.70;99.90;;;;;;4999585;28;20519;-68
2022/09/18 12:40:00;;;;;;;;;;;15.70;99.90;;;;;;5001503;28;19921;-70
2022/09/18 12:42:37;;;;;;;;;;;15.60;99.90;;;;;;4994795;28;19992;-67
2022/09/18 12:45:17;;;;;;;;;;;15.70;99.90;;;;;;4998058;28;20004;-68
2022/09/18 12:47:49;;;;;;;;;;;15.70;99.90;;;;;;5002475;28;19937;-67
2022/09/18 12:50:35;;;;;;;;;;;15.80;99.90;;;;;;5005012;28;19949;-67
2022/09/18 12:53:15;;;;;;;;;;;15.80;99.90;;;;;;5000238;28;19955;-68
2022/09/18 12:55:42;;;;;;;;;;;15.70;99.90;;;;;;5001260;28;20024;-67
2022/09/18 12:58:12;;;;;;;;;;;15.70;99.90;;;;;;4996712;28;19940;-69
2022/09/18 13:00:40;;;;;;;;;;;15.70;99.90;;;;;;4992305;28;19941;-68
2022/09/18 13:03:06;;;;;;;;;;;15.80;99.90;;;;;;4994408;28;20021;-67
2022/09/18 13:05:33;;;;;;;;;;;15.90;99.90;;;;;;4995553;28;20624;-69
2022/09/18 13:08:21;;;;;;;;;;;15.80;99.90;;;;;;4994443;28;20294;-68
2022/09/18 13:10:49;;;;;;;;;;;15.80;99.90;;;;;;4988214;28;19928;-68
2022/09/18 13:13:19;;;;;;;;;;;15.90;99.90;;;;;;4999229;28;19957;-68
2022/09/18 13:15:49;;;;;;;;;;;15.90;99.90;;;;;;5003043;28;19940;-69
2022/09/18 13:18:19;;;;;;;;;;;15.90;99.90;;;;;;5000011;28;19921;-69
2022/09/18 13:20:46;;;;;;;;;;;15.90;99.90;;;;;;5003316;28;20040;-69
2022/09/18 13:23:16;;;;;;;;;;;15.80;99.90;;;;;;5001768;28;20032;-68
2022/09/18 13:25:46;;;;;;;;;;;15.90;99.90;;;;;;4997015;28;20305;-67
2022/09/18 13:28:14;;;;;;;;;;;15.90;99.90;;;;;;4997448;28;19922;-67
2022/09/18 13:30:41;;;;;;;;;;;16.00;99.90;;;;;;4996925;28;19928;-67
2022/09/18 13:33:20;;;;;;;;;;;16.00;99.90;;;;;;4995142;28;19953;-67
2022/09/18 13:35:52;;;;;;;;;;;15.90;99.90;;;;;;5001719;28;19917;-67
2022/09/18 13:38:20;;;;;;;;;;;15.90;99.90;;;;;;4997171;28;20360;-68
2022/09/18 13:40:54;;;;;;;;;;;15.90;99.90;;;;;;5001549;28;19917;-69
2022/09/18 13:43:30;;;;;;;;;;;16.10;99.90;;;;;;4997482;28;20031;-67
2022/09/18 13:46:00;;;;;;;;;;;16.10;99.90;;;;;;4994980;28;19922;-67
2022/09/18 13:48:33;;;;;;;;;;;16.20;99.90;;;;;;4997315;28;19929;-72
2022/09/18 13:51:01;;;;;;;;;;;16.30;99.90;;;;;;4990863;28;19932;-67
2022/09/18 13:53:37;;;;;;;;;;;16.30;99.90;;;;;;4990227;28;20026;-67
2022/09/18 13:56:05;;;;;;;;;;;16.30;99.90;;;;;;4992829;28;19987;-68
2022/09/18 13:58:32;;;;;;;;;;;16.50;99.90;;;;;;4992496;28;19921;-69
2022/09/18 14:01:09;;;;;;;;;;;16.30;99.90;;;;;;4996852;28;19952;-70
2022/09/18 14:03:37;;;;;;;;;;;16.40;99.90;;;;;;4996911;28;19995;-70
2022/09/18 14:06:37;;;;;;;;;;;16.50;99.90;;;;;;5001107;28;19941;-70
2022/09/18 14:09:30;;;;;;;;;;;16.60;99.90;;;;;;4977936;28;19926;-68
2022/09/18 14:12:09;;;;;;;;;;;16.70;99.90;;;;;;5000757;28;19917;-67
2022/09/18 14:14:37;;;;;;;;;;;16.80;99.90;;;;;;4998289;28;19932;-69
2022/09/18 14:17:13;;;;;;;;;;;16.80;99.90;;;;;;5001617;28;19921;-69
2022/09/18 14:19:43;;;;;;;;;;;16.90;99.90;;;;;;4998488;28;19952;-69
2022/09/18 14:22:39;;;;;;;;;;;16.80;99.90;;;;;;5002134;28;20016;-68
2022/09/18 14:25:09;;;;;;;;;;;17.00;99.90;;;;;;4999876;28;20688;-69
2022/09/18 14:27:49;;;;;;;;;;;17.10;99.90;;;;;;4998052;28;20024;-68
2022/09/18 14:30:19;;;;;;;;;;;17.10;99.90;;;;;;5000972;28;19948;-67
2022/09/18 14:33:04;;;;;;;;;;;17.00;99.90;;;;;;5002016;28;19940;-68
2022/09/18 14:35:37;;;;;;;;;;;17.10;99.90;;;;;;5000514;28;20455;-68
2022/09/18 14:38:26;;;;;;;;;;;17.00;99.90;;;;;;5003183;28;19963;-68
2022/09/18 14:40:56;;;;;;;;;;;17.10;99.90;;;;;;5002459;28;20358;-68
2022/09/18 14:43:24;;;;;;;;;;;17.40;99.90;;;;;;5001828;28;19948;-67
2022/09/18 14:45:52;;;;;;;;;;;17.50;99.90;;;;;;5006320;28;20034;-68
2022/09/18 14:48:20;;;;;;;;;;;17.60;99.90;;;;;;5007358;28;19917;-71
2022/09/18 14:50:57;;;;;;;;;;;17.40;99.90;;;;;;5002798;28;20309;-67
2022/09/18 14:53:26;;;;;;;;;;;17.40;99.90;;;;;;4999212;28;20876;-68